Gig Harbor, WA

10:01 PM PDT on April 25, 2017 (GMT -0700)
Eagle Cliffs | | Change Station

Elev 282 ft 47.33 °N, 122.57 °W | Updated 27 minutes ago

Rain
Rain
48.2 °F
Feels Like 48 °F
N
1.0
Wind Variable Wind from SE

Today
High -- | Low -- °F
--% Chance of Precip.
Yesterday
High -- | Low -- °F
Precip. -- in
Pressure 29.78 in
Visibility 5.0 miles
Clouds Overcast 2300 ft
Windchill 48 °F
Dew Point 45 °F
Humidity 88%
Rainfall 0.05 in
Snow Depth Not available.
6:03 AM 8:14 PM
Waning Crescent, 0% visible
METAR KTIW 260453Z AUTO 00000KT 5SM -RA BR OVC023 09/09 A2978 RMK AO2 SLP084 P0003 T00890089
Pressure 29.78 in
Visibility 5.0 miles
Clouds Overcast 2300 ft
Windchill 48 °F
Dew Point 45 °F
Humidity 88%
Rainfall 0.05 in
Snow Depth Not available.
6:03 AM 8:14 PM
Waning Crescent, 0% visible
METAR KTIW 260453Z AUTO 00000KT 5SM -RA BR OVC023 09/09 A2978 RMK AO2 SLP084 P0003 T00890089

Get Severe Weather Alerts

Thanks for signing up!

Be on the lookout for a verification email in your inbox.

You'll start receiving the daily forecast at 8 AM.

×

10-Day Weather Forecast

Almanac

Astronomy

Apr. 25, 2017 Rise Set
Actual Time
Civil Twilight
Nautical Twilight
Astronomical Twilight
Moon
Length of Visible Light
Length of Day
Tomorrow will be .
, % of the Moon is Illuminated

Today's Extremes

State Highs State Lows

Community

WunderPhotos

WunderBlog® & News

Nearby

Air Quality

  Air Quality AQ Index Pollutant
Not available.

Snow Depth

Station Depth Elevation

Earthquake Activity

City Distance Mag. Time & Date
Minimum magnitude displayed is 2.5.

Coastal Water Temperatures

Place Temperature

Stations

Nearby Weather Stations

Station Location Temp. Windchill Dew Point Humidity Wind Precip. Elev Updated Type
                   

Watches & Warnings

There are currently no watches in effect.